createdAt,value
2023-01-15T00:00:17.497Z,929.33
2023-01-15T00:01:17.901Z,929.35
2023-01-15T00:02:18.376Z,929.31
2023-01-15T00:03:18.489Z,929.31
2023-01-15T00:04:18.637Z,929.31
2023-01-15T00:05:19.118Z,929.32
2023-01-15T00:06:19.751Z,929.3
2023-01-15T00:07:20.677Z,929.29
2023-01-15T00:08:21.025Z,929.21
2023-01-15T00:09:21.663Z,929.2
2023-01-15T00:10:22.574Z,929.15
2023-01-15T00:11:23.578Z,929.17
2023-01-15T00:12:24.503Z,929.11
2023-01-15T00:13:24.717Z,929.06
2023-01-15T00:14:25.672Z,929.02
2023-01-15T00:15:26.640Z,929.07
2023-01-15T00:16:26.893Z,928.98
2023-01-15T00:17:27.176Z,928.99
2023-01-15T00:18:27.377Z,928.95
2023-01-15T00:19:28.299Z,928.92
2023-01-15T00:20:28.939Z,928.84
2023-01-15T00:21:29.950Z,928.84
2023-01-15T00:22:30.918Z,928.81
2023-01-15T00:23:31.848Z,928.76
2023-01-15T00:24:32.789Z,928.7
2023-01-15T00:25:33.046Z,928.7
2023-01-15T00:26:33.701Z,928.68
2023-01-15T00:27:34.622Z,928.7
2023-01-15T00:28:34.755Z,928.7
2023-01-15T00:29:35.695Z,928.71
2023-01-15T00:30:35.886Z,928.79
2023-01-15T00:31:36.219Z,928.75
2023-01-15T00:32:36.419Z,928.73
2023-01-15T00:33:36.913Z,928.69
2023-01-15T00:34:37.556Z,928.67
2023-01-15T00:35:38.200Z,928.63
2023-01-15T00:36:39.116Z,928.66
2023-01-15T00:37:39.366Z,928.65
2023-01-15T00:38:39.844Z,928.65
2023-01-15T00:39:40.796Z,928.58
2023-01-15T00:40:41.697Z,928.54
2023-01-15T00:41:42.448Z,928.5
2023-01-15T00:42:42.696Z,928.53
2023-01-15T00:43:43.097Z,928.49
2023-01-15T00:44:43.468Z,928.52
2023-01-15T00:45:44.326Z,928.52
2023-01-15T00:46:45.311Z,928.46
2023-01-15T00:47:45.900Z,928.51
2023-01-15T00:48:46.531Z,928.54
2023-01-15T00:49:46.926Z,928.5
2023-01-15T00:50:47.849Z,928.5
2023-01-15T00:51:48.845Z,928.45
2023-01-15T00:52:49.036Z,928.49
2023-01-15T00:53:49.553Z,928.43
2023-01-15T00:54:50.182Z,928.4
2023-01-15T00:55:50.681Z,928.38
2023-01-15T00:56:50.908Z,928.28
2023-01-15T00:57:51.108Z,928.32
2023-01-15T00:58:51.759Z,928.3
2023-01-15T00:59:52.247Z,928.23
2023-01-15T01:00:52.783Z,928.31
2023-01-15T01:01:53.011Z,928.26
2023-01-15T01:02:53.139Z,928.24
2023-01-15T01:03:53.345Z,928.23
2023-01-15T01:04:54.291Z,928.17
2023-01-15T01:05:54.517Z,928.26
2023-01-15T01:06:55.015Z,928.21
2023-01-15T01:07:55.225Z,928.28
2023-01-15T01:08:55.455Z,928.17
2023-01-15T01:09:55.713Z,928.27
2023-01-15T01:10:56.418Z,928.16
2023-01-15T01:11:56.787Z,928.17
2023-01-15T01:12:57.007Z,928.11
2023-01-15T01:13:57.351Z,928.08
2023-01-15T01:14:57.466Z,928.03
2023-01-15T01:15:58.135Z,928.01
2023-01-15T01:16:58.269Z,928.06
2023-01-15T01:17:58.470Z,928.08
2023-01-15T01:18:59.419Z,927.98
2023-01-15T01:20:00.364Z,928.06
2023-01-15T01:21:00.586Z,928.02
2023-01-15T01:22:00.900Z,928
2023-01-15T01:23:01.091Z,927.98
2023-01-15T01:24:02.017Z,927.9
2023-01-15T01:25:02.536Z,927.89
2023-01-15T01:26:03.461Z,927.84
2023-01-15T01:27:04.407Z,927.88
2023-01-15T01:28:04.619Z,927.9
2023-01-15T01:29:04.817Z,927.88
2023-01-15T01:30:05.458Z,927.83
2023-01-15T01:31:06.543Z,927.8
2023-01-15T01:32:06.883Z,927.89
2023-01-15T01:33:07.820Z,927.79
2023-01-15T01:34:08.742Z,927.75
2023-01-15T01:35:09.434Z,927.73
2023-01-15T01:36:10.066Z,927.75
2023-01-15T01:37:10.291Z,927.75
2023-01-15T01:38:10.722Z,927.8
2023-01-15T01:39:11.416Z,927.69
2023-01-15T01:40:11.949Z,927.72
2023-01-15T01:41:12.151Z,927.73
2023-01-15T01:42:12.775Z,927.76
2023-01-15T01:43:13.456Z,927.61
2023-01-15T01:44:14.379Z,927.66
2023-01-15T01:45:14.989Z,927.65
2023-01-15T01:46:15.373Z,927.69
2023-01-15T01:47:16.395Z,927.64
2023-01-15T01:48:17.058Z,927.64
2023-01-15T01:49:17.976Z,927.57
2023-01-15T01:50:18.193Z,927.58
2023-01-15T01:51:19.120Z,927.5
2023-01-15T01:52:19.397Z,927.5
2023-01-15T01:53:19.598Z,927.47
2023-01-15T01:54:20.524Z,927.48
2023-01-15T01:55:20.783Z,927.48
2023-01-15T01:56:20.981Z,927.46
2023-01-15T01:57:21.898Z,927.42
2023-01-15T01:58:22.126Z,927.42
2023-01-15T01:59:22.768Z,927.4
2023-01-15T02:00:23.687Z,927.39
2023-01-15T02:01:24.847Z,927.34
2023-01-15T02:02:24.909Z,927.34
2023-01-15T02:03:25.687Z,927.37
2023-01-15T02:04:26.193Z,927.3
2023-01-15T02:05:26.711Z,927.29
2023-01-15T02:06:26.937Z,927.28
2023-01-15T02:07:27.577Z,927.28
2023-01-15T02:08:28.496Z,927.31
2023-01-15T02:09:29.549Z,927.28
2023-01-15T02:10:29.767Z,927.21
2023-01-15T02:11:30.673Z,927.1
2023-01-15T02:12:30.829Z,927.17
2023-01-15T02:13:31.317Z,927.14
2023-01-15T02:14:31.995Z,927.06
2023-01-15T02:15:32.481Z,927.08
2023-01-15T02:16:33.167Z,927.12
2023-01-15T02:17:34.002Z,927.11
2023-01-15T02:18:34.655Z,927.06
2023-01-15T02:19:34.845Z,927.03
2023-01-15T02:20:35.075Z,926.99
2023-01-15T02:21:35.276Z,926.96
2023-01-15T02:22:36.293Z,926.92
2023-01-15T02:23:36.511Z,926.92
2023-01-15T02:24:36.733Z,926.96
2023-01-15T02:25:37.649Z,926.96
2023-01-15T02:26:38.620Z,926.92
2023-01-15T02:27:39.139Z,926.97
2023-01-15T02:28:39.808Z,926.93
2023-01-15T02:29:40.311Z,926.93
2023-01-15T02:30:41.241Z,926.95
2023-01-15T02:31:42.216Z,926.97
2023-01-15T02:32:42.451Z,926.98
2023-01-15T02:33:43.396Z,926.97
2023-01-15T02:34:44.373Z,926.94
2023-01-15T02:35:44.591Z,926.89
2023-01-15T02:36:45.498Z,926.9
2023-01-15T02:37:46.151Z,926.91
2023-01-15T02:38:46.648Z,926.94
2023-01-15T02:39:47.574Z,926.96
2023-01-15T02:40:48.292Z,926.93
2023-01-15T02:41:48.797Z,926.9
2023-01-15T02:42:49.068Z,926.92
2023-01-15T02:43:49.693Z,926.91
2023-01-15T02:44:50.637Z,926.94
2023-01-15T02:45:51.581Z,926.83
2023-01-15T02:46:51.898Z,926.85
2023-01-15T02:47:52.397Z,926.87
2023-01-15T02:48:52.888Z,926.9
2023-01-15T02:49:53.097Z,926.81
2023-01-15T02:50:54.015Z,926.81
2023-01-15T02:51:54.946Z,926.77
2023-01-15T02:52:55.398Z,926.69
2023-01-15T02:53:55.890Z,926.75
2023-01-15T02:54:56.869Z,926.79
2023-01-15T02:55:57.822Z,926.76
2023-01-15T02:56:58.202Z,926.74
2023-01-15T02:57:58.411Z,926.75
2023-01-15T02:58:58.653Z,926.7
2023-01-15T02:59:58.872Z,926.69
2023-01-15T03:00:59.958Z,926.67
2023-01-15T03:02:00.987Z,926.67
2023-01-15T03:03:01.475Z,926.62
2023-01-15T03:04:02.435Z,926.62
2023-01-15T03:05:02.835Z,926.61
2023-01-15T03:06:03.313Z,926.57
2023-01-15T03:07:03.688Z,926.55
2023-01-15T03:08:03.917Z,926.54
2023-01-15T03:09:04.145Z,926.61
2023-01-15T03:10:04.629Z,926.63
2023-01-15T03:11:05.331Z,926.6
2023-01-15T03:12:05.830Z,926.63
2023-01-15T03:13:06.861Z,926.66
2023-01-15T03:14:07.059Z,926.61
2023-01-15T03:15:07.995Z,926.54
2023-01-15T03:16:08.350Z,926.5
2023-01-15T03:17:09.064Z,926.58
2023-01-15T03:18:09.297Z,926.53
2023-01-15T03:19:10.222Z,926.51
2023-01-15T03:20:10.865Z,926.59
2023-01-15T03:21:11.216Z,926.6
2023-01-15T03:22:12.144Z,926.57
2023-01-15T03:23:12.460Z,926.53
2023-01-15T03:24:12.668Z,926.5
2023-01-15T03:25:12.879Z,926.43
2023-01-15T03:26:13.372Z,926.41
2023-01-15T03:27:13.874Z,926.48
2023-01-15T03:28:14.797Z,926.36
2023-01-15T03:29:15.028Z,926.4
2023-01-15T03:30:15.948Z,926.42
2023-01-15T03:31:16.519Z,926.34
2023-01-15T03:32:17.004Z,926.34
2023-01-15T03:33:17.580Z,926.4
2023-01-15T03:34:18.227Z,926.35
2023-01-15T03:35:19.143Z,926.31
2023-01-15T03:36:19.337Z,926.36
2023-01-15T03:37:19.962Z,926.31
2023-01-15T03:38:20.156Z,926.38
2023-01-15T03:39:20.508Z,926.4
2023-01-15T03:40:20.732Z,926.4
2023-01-15T03:41:21.378Z,926.38
2023-01-15T03:42:22.327Z,926.41
2023-01-15T03:43:23.344Z,926.39
2023-01-15T03:44:23.673Z,926.41
2023-01-15T03:45:24.591Z,926.45
2023-01-15T03:46:25.323Z,926.42
2023-01-15T03:47:25.551Z,926.34
2023-01-15T03:48:26.181Z,926.34
2023-01-15T03:49:26.562Z,926.32
2023-01-15T03:50:27.495Z,926.3
2023-01-15T03:51:27.734Z,926.32
2023-01-15T03:52:28.655Z,926.3
2023-01-15T03:53:29.366Z,926.31
2023-01-15T03:54:29.668Z,926.25
2023-01-15T03:55:30.148Z,926.29
2023-01-15T03:56:31.084Z,926.31
2023-01-15T03:57:31.727Z,926.29
2023-01-15T03:58:32.646Z,926.25
2023-01-15T03:59:32.860Z,926.2
2023-01-15T04:00:33.779Z,926.19
2023-01-15T04:01:34.518Z,926.18
2023-01-15T04:02:35.282Z,926.13
2023-01-15T04:03:35.715Z,926.13
2023-01-15T04:04:36.024Z,926.19
2023-01-15T04:05:36.658Z,926.23
2023-01-15T04:06:37.589Z,926.11
2023-01-15T04:07:37.838Z,926.15
2023-01-15T04:08:38.757Z,926.02
2023-01-15T04:09:39.690Z,926.03
2023-01-15T04:10:39.919Z,926.13
2023-01-15T04:11:40.216Z,925.99
2023-01-15T04:12:40.483Z,925.97
2023-01-15T04:13:41.429Z,925.96
2023-01-15T04:14:42.067Z,925.91
2023-01-15T04:15:43.062Z,925.9
2023-01-15T04:16:43.218Z,925.94
2023-01-15T04:17:43.890Z,925.87
2023-01-15T04:18:44.259Z,925.84
2023-01-15T04:19:44.503Z,925.84
2023-01-15T04:20:45.135Z,925.75
2023-01-15T04:21:45.342Z,925.69
2023-01-15T04:22:45.561Z,925.68
2023-01-15T04:23:45.943Z,925.66
2023-01-15T04:24:46.663Z,925.75
2023-01-15T04:25:47.005Z,925.73
2023-01-15T04:26:47.199Z,925.82
2023-01-15T04:27:47.395Z,925.76
2023-01-15T04:28:47.604Z,925.78
2023-01-15T04:29:48.534Z,925.69
2023-01-15T04:30:48.859Z,925.65
2023-01-15T04:31:49.755Z,925.57
2023-01-15T04:32:50.275Z,925.59
2023-01-15T04:33:50.578Z,925.58
2023-01-15T04:34:51.235Z,925.6
2023-01-15T04:35:51.595Z,925.64
2023-01-15T04:36:52.557Z,925.58
2023-01-15T04:37:52.776Z,925.59
2023-01-15T04:38:53.768Z,925.59
2023-01-15T04:39:53.986Z,925.63
2023-01-15T04:40:54.928Z,925.64
2023-01-15T04:41:55.127Z,925.6
2023-01-15T04:42:55.353Z,925.62
2023-01-15T04:43:56.342Z,925.68
2023-01-15T04:44:56.718Z,925.57
2023-01-15T04:45:57.024Z,925.52
2023-01-15T04:46:57.704Z,925.51
2023-01-15T04:47:57.934Z,925.52
2023-01-15T04:48:58.167Z,925.49
2023-01-15T04:49:59.091Z,925.5
2023-01-15T04:50:59.734Z,925.5
2023-01-15T04:51:59.946Z,925.52
2023-01-15T04:53:00.870Z,925.52
2023-01-15T04:54:01.883Z,925.47
2023-01-15T04:55:02.825Z,925.5
2023-01-15T04:56:03.741Z,925.54
2023-01-15T04:57:04.279Z,925.52
2023-01-15T04:58:04.767Z,925.53
2023-01-15T04:59:05.260Z,925.58
2023-01-15T05:00:05.480Z,925.53
2023-01-15T05:01:05.816Z,925.54
2023-01-15T05:02:06.974Z,925.47
2023-01-15T05:03:06.615Z,925.5
2023-01-15T05:04:07.694Z,925.47
2023-01-15T05:05:08.195Z,925.55
2023-01-15T05:06:08.411Z,925.55
2023-01-15T05:07:09.057Z,925.56
2023-01-15T05:08:09.981Z,925.6
2023-01-15T05:09:10.242Z,925.66
2023-01-15T05:10:11.156Z,925.61
2023-01-15T05:11:12.100Z,925.6
2023-01-15T05:12:12.306Z,925.59
2023-01-15T05:13:13.232Z,925.6
2023-01-15T05:14:13.937Z,925.69
2023-01-15T05:15:14.187Z,925.68
2023-01-15T05:16:15.189Z,925.66
2023-01-15T05:17:15.300Z,925.71
2023-01-15T05:18:16.319Z,925.75
2023-01-15T05:19:16.533Z,925.76
2023-01-15T05:20:17.165Z,925.8
2023-01-15T05:21:17.363Z,925.86
2023-01-15T05:22:17.881Z,925.9
2023-01-15T05:23:18.795Z,925.9
2023-01-15T05:24:19.165Z,925.93
2023-01-15T05:25:20.092Z,925.93
2023-01-15T05:26:21.035Z,926.05
2023-01-15T05:27:21.966Z,926.02
2023-01-15T05:28:22.892Z,926.13
2023-01-15T05:29:23.119Z,926.09
2023-01-15T05:30:23.358Z,926.17
2023-01-15T05:31:24.101Z,926.25
2023-01-15T05:32:24.779Z,926.2
2023-01-15T05:33:25.282Z,926.22
2023-01-15T05:34:25.577Z,926.14
2023-01-15T05:35:26.085Z,926.09
2023-01-15T05:36:27.015Z,926.1
2023-01-15T05:37:27.687Z,926.13
2023-01-15T05:38:28.204Z,926.11
2023-01-15T05:39:28.420Z,926.13
2023-01-15T05:40:29.064Z,926.15
2023-01-15T05:41:29.987Z,926.1
2023-01-15T05:42:30.184Z,926.04
2023-01-15T05:43:30.528Z,926.01
2023-01-15T05:44:31.569Z,925.97
2023-01-15T05:45:32.503Z,925.98
2023-01-15T05:46:33.484Z,926.07
2023-01-15T05:47:33.985Z,926.13
2023-01-15T05:48:34.904Z,926.14
2023-01-15T05:49:35.119Z,926.13
2023-01-15T05:50:35.758Z,926.04
2023-01-15T05:51:36.114Z,925.95
2023-01-15T05:52:37.032Z,925.97
2023-01-15T05:53:37.535Z,925.93
2023-01-15T05:54:38.262Z,925.94
2023-01-15T05:55:39.199Z,925.93
2023-01-15T05:56:40.118Z,925.92
2023-01-15T05:57:40.454Z,925.89
2023-01-15T05:58:41.385Z,925.93
2023-01-15T05:59:41.891Z,925.91
2023-01-15T06:00:42.543Z,925.91
2023-01-15T06:01:43.506Z,925.96
2023-01-15T06:02:44.496Z,926.01
2023-01-15T06:03:45.343Z,926.11
2023-01-15T06:04:46.238Z,926.07
2023-01-15T06:05:46.874Z,926.08
2023-01-15T06:06:47.531Z,926.07
2023-01-15T06:07:48.507Z,926.03
2023-01-15T06:08:49.442Z,926.02
2023-01-15T06:09:50.529Z,926.04
2023-01-15T06:10:51.499Z,926.01
2023-01-15T06:11:52.447Z,925.99
2023-01-15T06:12:53.426Z,925.95
2023-01-15T06:13:53.917Z,925.98
2023-01-15T06:14:54.489Z,925.98
2023-01-15T06:15:54.886Z,926
2023-01-15T06:16:55.051Z,926.01
2023-01-15T06:17:55.987Z,926.01
2023-01-15T06:18:56.197Z,926.02
2023-01-15T06:19:57.132Z,925.98
2023-01-15T06:20:57.658Z,925.93
2023-01-15T06:21:57.891Z,925.91
2023-01-15T06:22:58.030Z,925.92
2023-01-15T06:23:58.266Z,925.95
2023-01-15T06:24:58.753Z,925.98
2023-01-15T06:25:59.403Z,925.98
2023-01-15T06:26:59.596Z,926.01
2023-01-15T06:27:59.810Z,925.99
2023-01-15T06:29:00.316Z,926.01
2023-01-15T06:30:01.261Z,926
2023-01-15T06:31:02.196Z,926.04
2023-01-15T06:32:02.633Z,926.1
2023-01-15T06:33:03.261Z,926.11
2023-01-15T06:34:03.539Z,926.15
2023-01-15T06:35:04.254Z,926.27
2023-01-15T06:36:05.184Z,926.29
2023-01-15T06:37:05.421Z,926.31
2023-01-15T06:38:06.080Z,926.35
2023-01-15T06:39:06.592Z,926.3
2023-01-15T06:40:07.095Z,926.23
2023-01-15T06:41:08.024Z,926.2
2023-01-15T06:42:08.218Z,926.19
2023-01-15T06:43:08.715Z,926.21
2023-01-15T06:44:08.951Z,926.25
2023-01-15T06:45:09.798Z,926.29
2023-01-15T06:46:10.005Z,926.17
2023-01-15T06:47:10.858Z,926.02
2023-01-15T06:48:11.003Z,925.9
2023-01-15T06:49:11.231Z,925.88
2023-01-15T06:50:11.747Z,925.83
2023-01-15T06:51:12.120Z,925.77
2023-01-15T06:52:12.301Z,925.74
2023-01-15T06:53:13.303Z,925.73
2023-01-15T06:54:13.545Z,925.72
2023-01-15T06:55:14.035Z,925.75
2023-01-15T06:56:14.949Z,925.75
2023-01-15T06:57:15.154Z,925.74
2023-01-15T06:58:15.390Z,925.74
2023-01-15T06:59:16.017Z,925.74
2023-01-15T07:00:16.234Z,925.74
2023-01-15T07:01:16.977Z,925.73
2023-01-15T07:02:18.012Z,925.7
2023-01-15T07:03:18.007Z,925.77
2023-01-15T07:04:18.244Z,925.82
2023-01-15T07:05:18.983Z,925.93
2023-01-15T07:06:19.349Z,926.01
2023-01-15T07:07:19.975Z,926.04
2023-01-15T07:08:20.946Z,926.11
2023-01-15T07:09:21.171Z,926.09
2023-01-15T07:10:21.547Z,926.15
2023-01-15T07:11:22.211Z,926.22
2023-01-15T07:12:22.442Z,926.25
2023-01-15T07:13:22.676Z,926.21
2023-01-15T07:14:23.333Z,926.29
2023-01-15T07:15:23.415Z,926.31
2023-01-15T07:16:23.692Z,926.26
2023-01-15T07:17:24.135Z,926.21
2023-01-15T07:18:24.848Z,926.25
2023-01-15T07:19:25.926Z,926.36
2023-01-15T07:20:26.888Z,926.38
2023-01-15T07:21:27.296Z,926.44
2023-01-15T07:22:27.499Z,926.4
2023-01-15T07:23:27.752Z,926.39
2023-01-15T07:24:28.684Z,926.42
2023-01-15T07:25:29.424Z,926.46
2023-01-15T07:26:29.930Z,926.44
2023-01-15T07:27:30.888Z,926.49
2023-01-15T07:28:31.811Z,926.49
2023-01-15T07:29:32.727Z,926.51
2023-01-15T07:30:33.655Z,926.44
2023-01-15T07:31:34.386Z,926.42
2023-01-15T07:32:34.464Z,926.42
2023-01-15T07:33:35.377Z,926.4
2023-01-15T07:34:36.313Z,926.45
2023-01-15T07:35:36.592Z,926.39
2023-01-15T07:36:37.085Z,926.36
2023-01-15T07:37:37.619Z,926.3
2023-01-15T07:38:37.833Z,926.31
2023-01-15T07:39:38.049Z,926.43
2023-01-15T07:40:38.276Z,926.49
2023-01-15T07:41:38.623Z,926.58
2023-01-15T07:42:39.607Z,926.67
2023-01-15T07:43:39.840Z,926.67
2023-01-15T07:44:40.374Z,926.63
2023-01-15T07:45:41.243Z,926.56
2023-01-15T07:46:41.665Z,926.57
2023-01-15T07:47:42.193Z,926.67
2023-01-15T07:48:42.445Z,926.69
2023-01-15T07:49:43.372Z,926.73
2023-01-15T07:50:44.432Z,926.7
2023-01-15T07:51:44.683Z,926.64
2023-01-15T07:52:44.882Z,926.66
2023-01-15T07:53:45.208Z,926.64
2023-01-15T07:54:45.582Z,926.78
2023-01-15T07:55:46.313Z,926.68
2023-01-15T07:56:47.239Z,926.63
2023-01-15T07:57:47.738Z,926.62
2023-01-15T07:58:48.050Z,926.62
2023-01-15T07:59:48.244Z,926.6
2023-01-15T08:00:48.818Z,926.66
2023-01-15T08:01:49.544Z,926.69
2023-01-15T08:02:50.329Z,926.74
2023-01-15T08:03:50.639Z,926.73
2023-01-15T08:04:51.403Z,926.7
2023-01-15T08:05:52.457Z,926.69
2023-01-15T08:06:53.096Z,926.73
2023-01-15T08:07:54.032Z,926.75
2023-01-15T08:08:54.667Z,926.73
2023-01-15T08:09:55.582Z,926.71
2023-01-15T08:10:56.099Z,926.71
2023-01-15T08:11:56.314Z,926.54
2023-01-15T08:12:57.584Z,926.38
2023-01-15T08:13:57.743Z,926.31
2023-01-15T08:14:58.082Z,926.27
2023-01-15T08:15:58.414Z,926.36
2023-01-15T08:16:59.082Z,926.37
2023-01-15T08:18:00.099Z,926.23
2023-01-15T08:19:00.353Z,926.25
2023-01-15T08:20:00.861Z,926.2
2023-01-15T08:21:01.363Z,926.13
2023-01-15T08:22:01.583Z,926.05
2023-01-15T08:23:02.500Z,925.97
2023-01-15T08:24:03.421Z,925.97
2023-01-15T08:25:03.651Z,926.01
2023-01-15T08:26:04.354Z,926.06
2023-01-15T08:27:04.867Z,926.14
2023-01-15T08:28:05.805Z,926.08
2023-01-15T08:29:06.014Z,925.96
2023-01-15T08:30:06.949Z,925.83
2023-01-15T08:31:07.920Z,925.79
2023-01-15T08:32:08.771Z,925.78
2023-01-15T08:33:09.283Z,925.73
2023-01-15T08:34:09.511Z,925.79
2023-01-15T08:35:10.159Z,925.78
2023-01-15T08:36:10.608Z,925.66
2023-01-15T08:37:11.243Z,925.6
2023-01-15T08:38:12.033Z,925.58
2023-01-15T08:39:12.541Z,925.56
2023-01-15T08:40:13.076Z,925.55
2023-01-15T08:41:13.328Z,925.57
2023-01-15T08:42:14.260Z,925.53
2023-01-15T08:43:14.483Z,925.46
2023-01-15T08:44:14.989Z,925.48
2023-01-15T08:45:15.907Z,925.56
2023-01-15T08:46:16.400Z,925.6
2023-01-15T08:47:17.387Z,925.65
2023-01-15T08:48:18.069Z,925.64
2023-01-15T08:49:18.594Z,925.64
2023-01-15T08:50:19.524Z,925.6
2023-01-15T08:51:19.697Z,925.6
2023-01-15T08:52:20.467Z,925.59
2023-01-15T08:53:21.470Z,925.61
2023-01-15T08:54:22.109Z,925.62
2023-01-15T08:55:22.577Z,925.58
2023-01-15T08:56:23.398Z,925.6
2023-01-15T08:57:23.909Z,925.58
2023-01-15T08:58:24.869Z,925.59
2023-01-15T08:59:25.104Z,925.57
2023-01-15T09:00:25.331Z,925.55
2023-01-15T09:01:26.327Z,925.56
2023-01-15T09:02:26.550Z,925.57
2023-01-15T09:03:26.760Z,925.54
2023-01-15T09:04:27.139Z,925.5
2023-01-15T09:05:27.563Z,925.43
2023-01-15T09:06:28.306Z,925.45
2023-01-15T09:07:28.976Z,925.37
2023-01-15T09:08:29.949Z,925.39
2023-01-15T09:09:30.161Z,925.4
2023-01-15T09:10:30.357Z,925.39
2023-01-15T09:11:30.697Z,925.4
2023-01-15T09:12:31.340Z,925.45
2023-01-15T09:13:31.991Z,925.39
2023-01-15T09:14:55.853Z,925.41
2023-01-15T09:15:33.150Z,925.41
2023-01-15T09:16:33.402Z,925.47
2023-01-15T09:17:33.794Z,925.41
2023-01-15T09:18:34.739Z,925.42
2023-01-15T09:19:35.240Z,925.4
2023-01-15T09:20:36.249Z,925.39
2023-01-15T09:21:36.458Z,925.41
2023-01-15T09:22:37.057Z,925.4
2023-01-15T09:23:37.293Z,925.43
2023-01-15T09:24:38.379Z,925.41
2023-01-15T09:25:39.321Z,925.43
2023-01-15T09:26:40.329Z,925.45
2023-01-15T09:27:40.529Z,925.47
2023-01-15T09:28:40.749Z,925.5
2023-01-15T09:29:41.252Z,925.44
2023-01-15T09:30:41.580Z,925.47
2023-01-15T09:31:42.262Z,925.51
2023-01-15T09:32:42.498Z,925.52
2023-01-15T09:33:42.705Z,925.51
2023-01-15T09:34:43.618Z,925.51
2023-01-15T09:35:44.564Z,925.48
2023-01-15T09:36:45.610Z,925.48
2023-01-15T09:37:46.113Z,925.44
2023-01-15T09:38:46.328Z,925.4
2023-01-15T09:39:46.551Z,925.35
2023-01-15T09:40:46.755Z,925.38
2023-01-15T09:41:47.004Z,925.43
2023-01-15T09:42:47.207Z,925.46
2023-01-15T09:43:51.062Z,925.48
2023-01-15T09:44:49.143Z,925.46
2023-01-15T09:45:50.155Z,925.45
2023-01-15T09:46:50.687Z,925.44
2023-01-15T09:47:51.381Z,925.43
2023-01-15T09:48:51.609Z,925.45
2023-01-15T09:49:52.536Z,925.44
2023-01-15T09:50:52.747Z,925.45
2023-01-15T09:51:53.692Z,925.49
2023-01-15T09:52:54.640Z,925.5
2023-01-15T09:53:54.850Z,925.53
2023-01-15T09:54:55.782Z,925.57
2023-01-15T09:55:56.483Z,925.6
2023-01-15T09:56:57.513Z,925.64
2023-01-15T09:57:58.165Z,925.61
2023-01-15T09:58:58.668Z,925.55
2023-01-15T09:59:59.608Z,925.48
2023-01-15T10:01:00.596Z,925.4
2023-01-15T10:02:01.000Z,925.32
2023-01-15T10:03:01.388Z,925.36
2023-01-15T10:04:01.625Z,925.37
2023-01-15T10:05:03.892Z,925.34
2023-01-15T10:06:01.980Z,925.37
2023-01-15T10:07:02.151Z,925.36
2023-01-15T10:08:02.929Z,925.42
2023-01-15T10:09:03.425Z,925.41
2023-01-15T10:10:03.919Z,925.41
2023-01-15T10:11:04.816Z,925.37
2023-01-15T10:12:05.049Z,925.41
2023-01-15T10:13:05.569Z,925.39
2023-01-15T10:14:06.485Z,925.41
2023-01-15T10:15:07.424Z,925.48
2023-01-15T10:16:07.964Z,925.44
2023-01-15T10:17:08.572Z,925.49
2023-01-15T10:18:08.830Z,925.52
2023-01-15T10:19:09.072Z,925.53
2023-01-15T10:20:09.940Z,925.55
2023-01-15T10:21:10.318Z,925.59
2023-01-15T10:22:10.865Z,925.65
2023-01-15T10:23:11.403Z,925.64
2023-01-15T10:24:11.620Z,925.66
2023-01-15T10:25:11.823Z,925.66
2023-01-15T10:26:12.831Z,925.69
2023-01-15T10:27:13.590Z,925.71
2023-01-15T10:28:13.879Z,925.71
2023-01-15T10:29:14.116Z,925.68
2023-01-15T10:30:15.097Z,925.65
2023-01-15T10:31:15.370Z,925.62
2023-01-15T10:32:15.766Z,925.65
2023-01-15T10:33:16.445Z,925.7
2023-01-15T10:34:16.927Z,925.74
2023-01-15T10:35:17.444Z,925.78
2023-01-15T10:36:17.973Z,925.8
2023-01-15T10:37:18.706Z,925.85
2023-01-15T10:38:18.930Z,925.8
2023-01-15T10:39:21.201Z,925.79
2023-01-15T10:40:19.778Z,925.81
2023-01-15T10:41:20.726Z,925.85
2023-01-15T10:42:21.739Z,925.85
2023-01-15T10:43:22.379Z,925.89
2023-01-15T10:44:23.331Z,925.97
2023-01-15T10:45:24.004Z,925.95
2023-01-15T10:46:24.288Z,925.96
2023-01-15T10:47:25.268Z,925.95
2023-01-15T10:48:26.191Z,925.99
2023-01-15T10:49:26.851Z,925.97
2023-01-15T10:50:27.501Z,925.96
2023-01-15T10:51:28.433Z,925.95
2023-01-15T10:52:29.095Z,926
2023-01-15T10:53:30.037Z,926.01
2023-01-15T10:54:30.977Z,926.03
2023-01-15T10:55:31.185Z,926.02
2023-01-15T10:56:32.176Z,926.06
2023-01-15T10:57:32.944Z,926.12
2023-01-15T10:58:33.908Z,926.13
2023-01-15T10:59:34.412Z,926.14
2023-01-15T11:00:34.622Z,926.14
2023-01-15T11:01:35.443Z,926.26
2023-01-15T11:02:36.453Z,926.29
2023-01-15T11:03:37.132Z,926.29
2023-01-15T11:04:37.601Z,926.28
2023-01-15T11:05:38.695Z,926.29
2023-01-15T11:06:38.946Z,926.27
2023-01-15T11:07:50.050Z,926.3
2023-01-15T11:09:19.775Z,926.25
2023-01-15T11:10:20.012Z,926.32
2023-01-15T11:11:20.376Z,926.39
2023-01-15T11:12:20.593Z,926.5
2023-01-15T11:13:21.542Z,926.52
2023-01-15T11:14:22.513Z,926.63
2023-01-15T11:15:23.176Z,926.7
2023-01-15T11:16:23.500Z,926.73
2023-01-15T11:17:23.813Z,926.83
2023-01-15T11:18:24.861Z,926.77
2023-01-15T11:19:25.808Z,926.83
2023-01-15T11:20:26.725Z,926.9
2023-01-15T11:21:26.978Z,926.94
2023-01-15T11:22:27.329Z,926.94
2023-01-15T11:23:27.692Z,927
2023-01-15T11:24:28.234Z,927.01
2023-01-15T11:25:28.452Z,927.11
2023-01-15T11:26:28.699Z,927.17
2023-01-15T11:27:29.643Z,927.18
2023-01-15T11:28:29.930Z,927.28
2023-01-15T11:29:30.599Z,927.29
2023-01-15T11:30:30.827Z,927.35
2023-01-15T11:31:31.876Z,927.51
2023-01-15T11:32:32.529Z,927.52
2023-01-15T11:33:32.749Z,927.61
2023-01-15T11:34:33.382Z,927.64
2023-01-15T11:35:33.768Z,927.75
2023-01-15T11:36:34.796Z,927.78
2023-01-15T11:37:35.034Z,927.82
2023-01-15T11:38:36.031Z,927.83
2023-01-15T11:39:36.224Z,927.7
2023-01-15T11:40:36.579Z,927.86
2023-01-15T11:41:37.521Z,927.84
2023-01-15T11:42:38.067Z,927.9
2023-01-15T11:43:38.580Z,928
2023-01-15T11:44:38.826Z,928.05
2023-01-15T11:45:39.039Z,928.01
2023-01-15T11:46:39.572Z,928.09
2023-01-15T11:47:39.895Z,928.16
2023-01-15T11:48:40.612Z,928.19
2023-01-15T11:49:41.273Z,928.21
2023-01-15T11:50:42.237Z,928.23
2023-01-15T11:51:43.151Z,928.31
2023-01-15T11:52:43.383Z,928.35
2023-01-15T11:53:43.879Z,928.41
2023-01-15T11:54:44.520Z,928.4
2023-01-15T11:55:45.450Z,928.47
2023-01-15T11:56:45.749Z,928.5
2023-01-15T11:57:46.453Z,928.53
2023-01-15T11:58:47.205Z,928.57
2023-01-15T11:59:47.404Z,928.57
2023-01-15T12:00:48.346Z,928.64
2023-01-15T12:01:49.108Z,928.68
2023-01-15T12:02:50.091Z,928.76
2023-01-15T12:03:50.651Z,928.78
2023-01-15T12:04:51.592Z,928.81
2023-01-15T12:05:51.860Z,928.87
2023-01-15T12:06:52.355Z,928.88
2023-01-15T12:07:53.295Z,928.97
2023-01-15T12:08:54.008Z,928.93
2023-01-15T12:09:54.930Z,929.05
2023-01-15T12:10:55.995Z,929.07
2023-01-15T12:11:56.719Z,929.11
2023-01-15T12:12:56.920Z,929.14
2023-01-15T12:13:57.556Z,929.13
2023-01-15T12:14:57.753Z,929.17
2023-01-15T12:15:58.749Z,929.23
2023-01-15T12:16:59.730Z,929.21
2023-01-15T12:18:00.349Z,929.27
2023-01-15T12:19:00.822Z,929.3
2023-01-15T12:20:01.468Z,929.31
2023-01-15T12:21:02.412Z,929.34
2023-01-15T12:22:03.342Z,929.3
2023-01-15T12:23:03.548Z,929.29
2023-01-15T12:24:04.344Z,929.3
2023-01-15T12:25:04.787Z,929.33
2023-01-15T12:26:05.739Z,929.34
2023-01-15T12:27:07.240Z,929.4
2023-01-15T12:28:06.199Z,929.42
2023-01-15T12:29:06.914Z,929.51
2023-01-15T12:30:07.107Z,929.54
2023-01-15T12:31:07.652Z,929.5
2023-01-15T12:32:08.545Z,929.49
2023-01-15T12:33:09.620Z,929.52
2023-01-15T12:34:10.117Z,929.53
2023-01-15T12:35:10.772Z,929.53
2023-01-15T12:36:11.710Z,929.55
2023-01-15T12:37:11.926Z,929.57
2023-01-15T12:38:12.621Z,929.57
2023-01-15T12:39:13.238Z,929.57
2023-01-15T12:40:13.439Z,929.55